Time;durP1;ratioP1;P1;durP2;ratioP2;P2;SDS_P1;SDS_P2;PMS_P1;PMS_P2;Temp;Humidity;BMP_temperature;BMP_pressure;BME280_temperature;BME280_humidity;BME280_pressure;Samples;Min_cycle;Max_cycle;Signal;HPM_P1;HPM_P2
2022/09/20 00:01:32;;;;;;;5.60;4.80;;;;;;;10.11;81.88;99476.83;213761;1276;143533;-66
2022/09/20 00:06:35;;;;;;;5.10;4.10;;;;;;;10.13;82.12;99481.92;213939;1275;140658;-67
2022/09/20 00:11:37;;;;;;;4.70;3.80;;;;;;;10.15;82.18;99486.22;215904;1276;140133;-67
2022/09/20 00:16:40;;;;;;;6.80;4.40;;;;;;;10.14;82.03;99491.27;215555;1276;140518;-67
2022/09/20 00:21:42;;;;;;;4.70;3.40;;;;;;;10.13;81.77;99494.45;214666;1275;140691;-66
2022/09/20 00:26:44;;;;;;;3.80;3.30;;;;;;;10.12;81.67;99492.95;215879;1274;140802;-69
2022/09/20 00:31:46;;;;;;;5.10;3.70;;;;;;;10.10;81.55;99497.64;215078;1276;140710;-66
2022/09/20 00:36:49;;;;;;;4.10;3.70;;;;;;;10.04;81.63;99500.20;213290;1276;141305;-66
2022/09/20 00:41:51;;;;;;;6.40;4.60;;;;;;;9.97;81.59;99503.69;214915;1276;141051;-66
2022/09/20 00:46:54;;;;;;;4.40;3.60;;;;;;;9.91;81.67;99502.16;213985;1276;140838;-66
2022/09/20 00:52:00;;;;;;;3.90;3.40;;;;;;;9.92;81.79;99499.41;214196;1276;142089;-66
2022/09/20 00:57:03;;;;;;;5.50;3.80;;;;;;;9.94;81.90;99500.52;212971;1276;140496;-66
2022/09/20 01:02:11;;;;;;;6.00;3.40;;;;;;;9.91;81.65;99503.12;213291;1276;141750;-65
2022/09/20 01:07:18;;;;;;;5.30;4.00;;;;;;;9.84;81.76;99500.27;214265;1276;139591;-68
2022/09/20 01:12:28;;;;;;;2.40;2.20;;;;;;;9.77;81.54;99503.80;213770;1275;140147;-67
2022/09/20 01:17:33;;;;;;;4.90;3.50;;;;;;;9.66;81.25;99507.00;213297;1275;140148;-68
2022/09/20 01:22:39;;;;;;;4.60;4.20;;;;;;;9.56;81.44;99512.63;213486;1276;141274;-67
2022/09/20 01:27:45;;;;;;;4.50;3.10;;;;;;;9.46;81.36;99512.46;213609;1276;139699;-66
2022/09/20 01:33:05;;;;;;;4.90;4.50;;;;;;;9.39;81.59;99513.74;214281;1276;140051;-67
2022/09/20 01:38:26;;;;;;;4.20;3.40;;;;;;;9.39;81.82;99511.30;214143;1276;141376;-67
2022/09/20 01:43:30;;;;;;;4.50;3.70;;;;;;;9.44;82.05;99515.09;213332;1275;232321;-68
2022/09/20 01:48:38;;;;;;;5.30;3.00;;;;;;;9.46;82.28;99512.52;214884;1275;140226;-67
2022/09/20 01:54:08;;;;;;;4.50;3.20;;;;;;;9.45;82.27;99510.58;212908;1276;143168;-67
2022/09/20 01:59:47;;;;;;;3.70;3.00;;;;;;;9.45;82.40;99509.90;212921;1276;142213;-67
2022/09/20 02:05:09;;;;;;;3.40;3.00;;;;;;;9.46;82.33;99512.10;215090;1276;140682;-66
2022/09/20 02:10:33;;;;;;;5.30;3.10;;;;;;;9.48;82.38;99513.57;215939;1276;140378;-67
2022/09/20 02:15:51;;;;;;;4.30;3.10;;;;;;;9.43;81.84;99508.10;216028;1275;139745;-69
2022/09/20 02:21:04;;;;;;;;;;;;;;;9.34;81.49;99510.06;215006;1276;139686;-67
2022/09/20 02:26:28;;;;;;;4.40;3.00;;;;;;;9.22;81.49;99509.52;215330;1275;126816;-66
2022/09/20 02:32:08;;;;;;;4.20;3.10;;;;;;;9.16;81.40;99510.94;214830;1275;140375;-67
2022/09/20 02:37:42;;;;;;;4.10;3.40;;;;;;;9.09;81.67;99519.61;214613;1275;140395;-67
2022/09/20 02:43:02;;;;;;;5.00;3.40;;;;;;;9.03;81.88;99525.67;212729;1276;140163;-67
2022/09/20 02:48:05;;;;;;;3.30;3.00;;;;;;;8.99;81.52;99524.19;214776;1276;140479;-66
2022/09/20 02:53:13;;;;;;;5.30;2.90;;;;;;;8.93;81.59;99526.16;213231;1274;142281;-66
2022/09/20 02:58:37;;;;;;;4.40;3.60;;;;;;;8.96;82.36;99527.68;213439;1276;139901;-66
2022/09/20 03:04:02;;;;;;;5.30;3.50;;;;;;;9.03;82.60;99531.33;214060;1277;141005;-66
2022/09/20 03:09:34;;;;;;;5.40;4.00;;;;;;;9.11;82.77;99532.10;213161;1276;142167;-67
2022/09/20 03:14:52;;;;;;;4.30;3.50;;;;;;;9.13;82.76;99532.61;213171;1276;151090;-65
2022/09/20 03:20:07;;;;;;;5.70;3.90;;;;;;;9.14;82.69;99533.75;213161;1276;139477;-66
2022/09/20 03:25:29;;;;;;;4.50;3.20;;;;;;;9.13;82.83;99536.29;213471;1276;140061;-67
2022/09/20 03:30:41;;;;;;;5.00;3.70;;;;;;;9.09;82.85;99539.29;212888;1276;140355;-66
2022/09/20 03:35:55;;;;;;;3.80;3.40;;;;;;;9.07;82.94;99539.23;214485;1276;139974;-65
2022/09/20 03:41:25;;;;;;;3.10;2.90;;;;;;;9.02;82.82;99540.86;213578;1276;141007;-66
2022/09/20 03:46:50;;;;;;;3.50;2.90;;;;;;;8.99;82.97;99547.06;213970;1276;141321;-66
2022/09/20 03:52:17;;;;;;;5.40;4.30;;;;;;;8.95;82.79;99552.17;214005;1276;140342;-66
2022/09/20 03:57:33;;;;;;;4.30;3.70;;;;;;;8.99;83.24;99553.55;213892;1276;140170;-66
2022/09/20 04:03:02;;;;;;;4.40;4.00;;;;;;;9.07;83.30;99562.68;215751;1276;141625;-66
2022/09/20 04:08:36;;;;;;;4.80;4.40;;;;;;;9.17;83.39;99564.56;215478;1275;140843;-66
2022/09/20 04:13:53;;;;;;;6.40;5.80;;;;;;;9.28;83.66;99569.87;215888;1276;140113;-67
2022/09/20 04:19:03;;;;;;;7.20;4.80;;;;;;;9.29;83.55;99566.77;215939;1276;141378;-66
2022/09/20 04:24:12;;;;;;;6.10;5.50;;;;;;;9.31;83.56;99577.46;215818;1275;140123;-68
2022/09/20 04:29:39;;;;;;;6.20;5.60;;;;;;;9.37;83.65;99579.58;215428;1276;140634;-65
2022/09/20 04:40:27;;;;;;;5.30;4.80;;;;;;;9.50;83.34;99590.33;215073;1276;139760;-66
2022/09/20 04:46:09;;;;;;;6.00;5.50;;;;;;;9.50;83.41;99593.58;213614;1276;142042;-65
2022/09/20 04:51:16;;;;;;;7.60;6.70;;;;;;;9.51;83.48;99590.35;213874;1276;142768;-65
2022/09/20 04:56:27;;;;;;;5.60;5.10;;;;;;;9.49;83.52;99595.25;213345;1276;141344;-66
2022/09/20 05:01:58;;;;;;;6.80;6.10;;;;;;;9.48;83.48;99598.16;213381;1276;141268;-65
2022/09/20 05:07:20;;;;;;;7.10;6.10;;;;;;;9.47;83.43;99609.45;213208;1276;141033;-67
2022/09/20 05:12:53;;;;;;;7.60;6.80;;;;;;;9.49;83.55;99620.95;213162;1276;141572;-67
2022/09/20 05:18:09;;;;;;;8.40;6.30;;;;;;;9.52;83.64;99626.52;214239;1276;141555;-68
2022/09/20 05:23:40;;;;;;;9.20;7.30;;;;;;;9.58;83.71;99629.27;213267;1275;141476;-69
2022/09/20 05:28:54;;;;;;;9.00;5.90;;;;;;;9.63;83.63;99628.38;214150;1276;140277;-69
2022/09/20 05:34:10;;;;;;;7.50;6.30;;;;;;;9.64;83.44;99632.50;214489;1276;139351;-66
2022/09/20 05:39:40;;;;;;;8.10;6.60;;;;;;;9.68;83.53;99648.77;214342;1275;223287;-66
2022/09/20 05:45:20;;;;;;;8.10;6.40;;;;;;;9.73;83.54;99650.20;214253;1276;140445;-66
2022/09/20 05:50:40;;;;;;;8.30;7.00;;;;;;;9.82;83.50;99666.88;214576;1275;140059;-66
2022/09/20 05:55:45;;;;;;;12.40;8.50;;;;;;;9.90;83.25;99665.51;215792;1276;140534;-65
2022/09/20 06:01:01;;;;;;;9.10;6.50;;;;;;;9.98;83.04;99665.54;214709;1276;141502;-68
2022/09/20 06:06:07;;;;;;;6.30;5.30;;;;;;;10.06;83.19;99669.99;215871;1276;140683;-69
2022/09/20 06:11:15;;;;;;;7.00;5.40;;;;;;;10.12;83.02;99676.93;215592;1277;139825;-69
2022/09/20 06:16:30;;;;;;;8.70;5.90;;;;;;;10.23;83.07;99676.73;215787;1276;142148;-70
2022/09/20 06:21:51;;;;;;;6.40;5.70;;;;;;;10.35;82.95;99672.58;215196;1276;141076;-72
2022/09/20 06:26:55;;;;;;;6.60;5.60;;;;;;;10.47;82.74;99673.22;214285;1276;140441;-67
2022/09/20 06:31:58;;;;;;;7.70;6.40;;;;;;;10.65;82.73;99676.44;214356;1276;139365;-71
2022/09/20 06:42:43;;;;;;;6.10;5.50;;;;;;;10.84;82.50;99685.16;213763;1276;140128;-71
2022/09/20 06:47:46;;;;;;;6.80;6.10;;;;;;;10.87;82.04;99686.29;214635;1276;140998;-72
2022/09/20 06:52:48;;;;;;;6.80;5.60;;;;;;;10.85;81.88;99687.80;213746;1276;139647;-65
2022/09/20 06:57:51;;;;;;;8.00;6.30;;;;;;;10.85;82.04;99691.58;213732;1276;230800;-67
2022/09/20 07:02:55;;;;;;;6.60;5.50;;;;;;;10.94;82.09;99699.18;213456;1277;140882;-68
2022/09/20 07:07:58;;;;;;;7.40;5.70;;;;;;;10.97;81.87;99706.83;213511;1276;140634;-67
2022/09/20 07:13:01;;;;;;;8.50;6.10;;;;;;;10.99;82.04;99715.11;212912;1277;140447;-69
2022/09/20 07:18:04;;;;;;;7.10;6.30;;;;;;;11.02;82.37;99719.59;213964;1276;141090;-71
2022/09/20 07:23:07;;;;;;;10.00;5.90;;;;;;;11.08;82.13;99720.77;212967;1276;139662;-69
2022/09/20 07:28:09;;;;;;;12.50;7.40;;;;;;;11.18;82.18;99723.09;214122;1276;140735;-68
2022/09/20 07:33:16;;;;;;;9.00;5.60;;;;;;;11.26;81.96;99723.45;214453;1276;140860;-70
2022/09/20 07:38:19;;;;;;;9.20;5.60;;;;;;;11.37;81.98;99727.45;214088;1276;141683;-75
2022/09/20 07:43:21;;;;;;;7.60;5.80;;;;;;;11.58;81.96;99727.11;213374;1276;141368;-73
2022/09/20 07:48:30;;;;;;;7.50;4.70;;;;;;;11.63;81.63;99730.35;214003;1276;140328;-73
2022/09/20 07:53:33;;;;;;;8.60;5.80;;;;;;;11.97;81.62;99737.23;215362;1276;141605;-71
2022/09/20 07:58:40;;;;;;;12.40;5.80;;;;;;;12.33;81.57;99740.87;215764;1276;142665;-71
2022/09/20 08:03:43;;;;;;;5.70;5.20;;;;;;;12.38;80.88;99741.05;215847;1276;141967;-71
2022/09/20 08:08:46;;;;;;;5.50;4.90;;;;;;;12.38;80.54;99743.13;214362;1276;140189;-68
2022/09/20 08:13:51;;;;;;;3.80;3.50;;;;;;;12.46;80.15;99742.92;214737;1276;141164;-73
2022/09/20 08:19:22;;;;;;;6.90;4.90;;;;;;;12.65;80.22;99741.73;215112;1276;140833;-69
2022/09/20 08:24:25;;;;;;;8.20;5.50;;;;;;;12.77;79.82;99750.71;212933;1276;141605;-68
2022/09/20 08:29:27;;;;;;;5.90;5.20;;;;;;;12.68;79.30;99747.48;215084;1275;142694;-70
2022/09/20 08:34:29;;;;;;;7.70;5.20;;;;;;;12.83;79.37;99749.50;213943;1276;161769;-68
2022/09/20 08:39:32;;;;;;;4.90;4.30;;;;;;;13.13;79.65;99755.69;213207;1276;142883;-68
2022/09/20 08:45:04;;;;;;;5.80;5.10;;;;;;;13.27;79.02;99758.05;213571;1276;142473;-72
2022/09/20 08:50:14;;;;;;;6.40;5.80;;;;;;;13.20;78.61;99763.97;213609;1277;151016;-70
2022/09/20 08:55:24;;;;;;;6.90;5.60;;;;;;;13.32;78.71;99771.77;213141;1276;140831;-69
2022/09/20 09:00:33;;;;;;;10.40;8.40;;;;;;;13.41;78.47;99776.48;213443;1276;143327;-67
2022/09/20 09:05:42;;;;;;;9.70;6.20;;;;;;;13.32;77.95;99778.09;212841;1277;141360;-64
2022/09/20 09:10:58;;;;;;;13.20;7.50;;;;;;;13.30;78.10;99776.62;213091;1277;140972;-70
2022/09/20 09:16:08;;;;;;;12.80;7.00;;;;;;;13.41;78.10;99779.70;213177;1277;143646;-72
2022/09/20 09:21:29;;;;;;;10.90;9.00;;;;;;;13.48;77.49;99781.73;212848;1277;141107;-71
2022/09/20 09:26:36;;;;;;;9.00;7.20;;;;;;;13.44;77.41;99782.39;214359;1277;141597;-69
2022/09/20 09:31:39;;;;;;;6.60;5.20;;;;;;;13.34;77.06;99780.52;213037;1277;141016;-71
2022/09/20 09:36:43;;;;;;;8.90;6.50;;;;;;;13.40;77.30;99788.63;214184;1277;140611;-68
2022/09/20 09:41:46;;;;;;;7.10;6.00;;;;;;;13.47;77.18;99789.86;214859;1276;139721;-70
2022/09/20 09:46:52;;;;;;;7.00;6.30;;;;;;;13.29;76.99;99797.59;214363;1277;139825;-73
2022/09/20 09:52:11;;;;;;;8.10;5.30;;;;;;;13.04;76.73;99796.05;213515;1277;140606;-71
2022/09/20 09:57:22;;;;;;;6.90;5.20;;;;;;;12.87;77.30;99797.48;215307;1277;591183;-73
2022/09/20 10:03:03;;;;;;;7.90;6.70;;;;;;;12.68;77.24;99793.33;215676;1276;140472;-68
2022/09/20 10:08:20;;;;;;;9.00;5.90;;;;;;;12.66;78.05;99794.48;214953;1277;140150;-66
2022/09/20 10:13:42;;;;;;;7.20;6.20;;;;;;;12.72;78.14;99802.90;214462;1276;140174;-68
2022/09/20 10:19:02;;;;;;;5.70;5.20;;;;;;;12.77;77.95;99805.71;214575;1277;141113;-70
2022/09/20 10:24:40;;;;;;;8.00;6.20;;;;;;;12.93;78.25;99811.23;213865;1277;211031;-70
2022/09/20 10:29:57;;;;;;;;;;;;;;;13.28;78.61;99814.54;213469;1277;140122;-74
2022/09/20 10:35:14;;;;;;;7.50;6.10;;;;;;;13.22;78.13;99822.56;214029;1277;126607;-68
2022/09/20 10:46:31;;;;;;;10.20;7.20;;;;;;;13.38;77.76;99826.83;212947;1277;139669;-68
2022/09/20 10:52:04;;;;;;;7.70;6.90;;;;;;;13.58;77.80;99829.45;213304;1276;140213;-69
2022/09/20 10:57:37;;;;;;;9.40;7.50;;;;;;;13.70;77.60;99835.16;213435;1277;141303;-68
2022/09/20 11:02:57;;;;;;;15.80;13.10;;;;;;;13.57;77.18;99843.10;213057;1276;140412;-67
2022/09/20 11:08:12;;;;;;;7.00;6.30;;;;;;;13.42;76.78;99849.10;213103;1276;140864;-66
2022/09/20 11:13:24;;;;;;;6.10;5.10;;;;;;;13.42;76.68;99847.07;214278;1276;140573;-68
2022/09/20 11:18:44;;;;;;;7.40;6.70;;;;;;;13.54;76.85;99839.31;213959;1276;140719;-67
2022/09/20 11:24:20;;;;;;;6.40;5.80;;;;;;;13.76;76.87;99848.50;213042;1276;139580;-68
2022/09/20 11:29:31;;;;;;;6.50;5.90;;;;;;;14.26;76.69;99848.16;213428;1276;140697;-69
2022/09/20 11:34:57;;;;;;;6.20;4.80;;;;;;;14.35;75.65;99851.29;214810;1276;140837;-68
2022/09/20 11:40:21;;;;;;;5.20;4.20;;;;;;;14.42;75.00;99849.95;214714;1276;140180;-67
2022/09/20 11:45:26;;;;;;;5.70;4.70;;;;;;;14.45;74.57;99851.16;215363;1276;139816;-67
2022/09/20 11:50:51;;;;;;;;;;;;;;;14.66;74.59;99847.49;213978;1276;141000;-68
2022/09/20 11:56:11;;;;;;;5.70;5.20;;;;;;;14.88;74.42;99847.59;215867;1276;195415;-67
2022/09/20 12:01:16;;;;;;;5.60;4.60;;;;;;;14.92;73.64;99847.50;214724;1276;139944;-66
2022/09/20 12:06:33;;;;;;;7.90;5.60;;;;;;;15.25;73.54;99845.82;214788;1276;141078;-67
2022/09/20 12:11:38;;;;;;;6.10;4.90;;;;;;;15.56;73.05;99844.34;214951;1276;141577;-67
2022/09/20 12:16:45;;;;;;;8.10;5.40;;;;;;;15.94;72.56;99842.77;214637;1276;140698;-67
2022/09/20 12:21:59;;;;;;;5.90;5.30;;;;;;;16.19;71.71;99836.38;213584;1276;140224;-66
2022/09/20 12:27:41;;;;;;;5.40;3.70;;;;;;;16.46;71.28;99840.19;214371;1276;140847;-67
2022/09/20 12:32:52;;;;;;;4.50;4.10;;;;;;;16.48;70.38;99843.02;213547;1282;141051;-66
2022/09/20 12:37:54;;;;;;;4.50;4.10;;;;;;;16.69;70.23;99838.34;213431;1276;141710;-66
2022/09/20 12:42:57;;;;;;;4.20;3.80;;;;;;;17.01;69.49;99835.63;213610;1276;141891;-66
2022/09/20 12:48:00;;;;;;;4.30;4.00;;;;;;;17.12;68.83;99833.55;213448;1276;251329;-65
2022/09/20 12:53:11;;;;;;;6.00;4.50;;;;;;;16.99;68.25;99834.77;213700;1276;140310;-66
2022/09/20 12:58:21;;;;;;;3.60;3.30;;;;;;;16.68;67.90;99830.00;213640;1276;140399;-66
2022/09/20 13:03:40;;;;;;;6.10;2.90;;;;;;;16.63;67.98;99823.10;213681;1276;143254;-66
2022/09/20 13:08:48;;;;;;;3.60;3.30;;;;;;;16.75;67.59;99818.91;213978;1276;140913;-69
2022/09/20 13:13:57;;;;;;;4.20;3.50;;;;;;;16.87;67.14;99817.19;213501;1277;142245;-68
2022/09/20 13:19:17;;;;;;;3.10;2.70;;;;;;;16.91;66.95;99816.54;213320;1276;141130;-70
2022/09/20 13:24:22;;;;;;;2.40;2.20;;;;;;;16.96;66.52;99820.61;213985;1277;140843;-72
2022/09/20 13:29:33;;;;;;;3.30;3.00;;;;;;;16.86;65.77;99819.57;213158;1276;141992;-69
2022/09/20 13:34:36;;;;;;;3.20;2.60;;;;;;;16.78;65.61;99828.38;213032;1276;140461;-70
2022/09/20 13:39:40;;;;;;;2.70;2.50;;;;;;;16.56;65.22;99831.95;215960;1276;140837;-68
2022/09/20 13:44:45;;;;;;;2.70;2.50;;;;;;;16.19;64.99;99836.70;215602;1276;142401;-70
2022/09/20 13:49:47;;;;;;;3.70;3.20;;;;;;;16.06;65.28;99838.36;215601;1275;140846;-70
2022/09/20 13:54:53;;;;;;;3.30;3.00;;;;;;;16.11;65.41;99833.64;213871;1276;141766;-71
2022/09/20 13:59:59;;;;;;;3.70;3.40;;;;;;;16.22;65.43;99829.64;213653;1276;139877;-70
2022/09/20 14:05:06;;;;;;;3.30;3.00;;;;;;;16.29;65.47;99820.60;214549;1276;140704;-70
2022/09/20 14:10:35;;;;;;;2.80;2.50;;;;;;;16.24;65.23;99815.34;214119;1276;141675;-69
2022/09/20 14:15:44;;;;;;;3.20;3.00;;;;;;;16.19;65.18;99807.50;213579;1276;140612;-70
2022/09/20 14:20:47;;;;;;;4.00;3.10;;;;;;;16.20;65.03;99810.73;214341;1277;140669;-72
2022/09/20 14:26:15;;;;;;;2.30;2.10;;;;;;;16.19;64.76;99806.38;214115;1276;140533;-72
2022/09/20 14:31:20;;;;;;;;;;;;;;;16.05;64.63;99804.42;214634;1276;140413;-69
2022/09/20 14:36:27;;;;;;;2.90;2.70;;;;;;;15.75;64.89;99817.73;214318;1276;127683;-71
2022/09/20 14:41:36;;;;;;;2.50;2.30;;;;;;;15.60;65.01;99820.39;213186;1276;141351;-69
2022/09/20 14:46:38;;;;;;;4.60;2.20;;;;;;;15.40;65.10;99822.35;213230;1276;139983;-70
2022/09/20 14:51:40;;;;;;;2.50;2.30;;;;;;;15.19;65.04;99828.09;214539;1276;140300;-67
2022/09/20 14:56:51;;;;;;;2.70;2.50;;;;;;;15.05;65.07;99824.90;213109;1276;139402;-67
2022/09/20 15:02:15;;;;;;;2.60;2.10;;;;;;;14.95;65.54;99826.67;212920;1276;139370;-68
2022/09/20 15:07:17;;;;;;;4.40;2.70;;;;;;;14.82;65.79;99831.06;213471;1276;140606;-66
2022/09/20 15:12:20;;;;;;;2.60;2.40;;;;;;;14.83;66.07;99841.11;213612;1276;140996;-71
2022/09/20 15:17:23;;;;;;;4.60;2.40;;;;;;;15.08;66.27;99846.50;214326;1276;141033;-69
2022/09/20 15:22:26;;;;;;;2.10;2.00;;;;;;;15.40;66.17;99849.04;214680;1277;140393;-71
2022/09/20 15:27:29;;;;;;;3.30;2.50;;;;;;;15.47;65.81;99849.98;213381;1276;140145;-71
2022/09/20 15:32:32;;;;;;;2.90;2.30;;;;;;;15.33;65.33;99850.96;214727;1276;141896;-70
2022/09/20 15:37:35;;;;;;;2.00;1.90;;;;;;;15.09;65.30;99850.27;213968;1276;140157;-70
2022/09/20 15:42:37;;;;;;;2.00;1.70;;;;;;;14.93;65.35;99859.96;214805;1276;142606;-69
2022/09/20 15:47:39;;;;;;;2.80;2.60;;;;;;;14.77;65.56;99867.10;215782;1277;139983;-69
2022/09/20 15:52:41;;;;;;;1.90;1.30;;;;;;;14.61;65.58;99867.38;215618;1276;140191;-70
2022/09/20 15:57:44;;;;;;;3.80;2.60;;;;;;;14.46;65.68;99875.20;215658;1276;140721;-68
2022/09/20 16:02:49;;;;;;;3.80;2.60;;;;;;;14.29;65.70;99881.85;214582;1276;140266;-68
2022/09/20 16:07:52;;;;;;;3.20;2.00;;;;;;;14.20;66.24;99888.48;214022;1276;140185;-75
2022/09/20 16:12:55;;;;;;;3.00;2.40;;;;;;;14.06;66.49;99889.46;215102;1276;140502;-72
2022/09/20 16:23:19;;;;;;;2.10;2.00;;;;;;;13.67;66.84;99889.39;214800;1276;140291;-66
2022/09/20 16:28:30;;;;;;;2.50;2.30;;;;;;;13.54;67.23;99897.48;214120;1276;141229;-67
2022/09/20 16:33:34;;;;;;;3.20;2.40;;;;;;;13.41;67.68;99897.71;213260;1276;140748;-69
2022/09/20 16:38:37;;;;;;;3.30;2.70;;;;;;;13.27;67.81;99897.41;213280;1276;141685;-69
2022/09/20 16:43:40;;;;;;;4.40;2.90;;;;;;;13.10;67.95;99901.84;213184;1276;141192;-67
2022/09/20 16:48:43;;;;;;;7.80;3.50;;;;;;;12.95;68.56;99908.46;213588;1276;140447;-69
2022/09/20 16:53:45;;;;;;;7.70;3.70;;;;;;;12.82;68.46;99910.41;212844;1276;141976;-67
2022/09/20 16:58:48;;;;;;;3.20;2.70;;;;;;;12.72;68.82;99917.28;213618;1276;140478;-65
2022/09/20 17:03:50;;;;;;;3.30;2.60;;;;;;;12.60;69.39;99926.50;213290;1276;140550;-70
2022/09/20 17:08:54;;;;;;;4.20;2.60;;;;;;;12.49;69.29;99929.69;213719;1276;139540;-69
2022/09/20 17:14:00;;;;;;;2.30;2.10;;;;;;;12.32;69.39;99930.79;214143;1276;140331;-67
2022/09/20 17:19:14;;;;;;;3.40;2.30;;;;;;;12.21;69.57;99938.20;214770;1276;140088;-68
2022/09/20 17:24:19;;;;;;;2.20;2.10;;;;;;;12.11;69.94;99943.61;214769;1276;141730;-67
2022/09/20 17:29:22;;;;;;;3.30;2.40;;;;;;;11.99;70.20;99948.35;212652;1276;141173;-68
2022/09/20 17:34:26;;;;;;;2.00;1.80;;;;;;;11.90;70.50;99962.20;215167;1276;141397;-67
2022/09/20 17:39:28;;;;;;;4.30;3.20;;;;;;;11.73;70.30;99963.67;215332;1276;140079;-65
2022/09/20 17:44:33;;;;;;;5.30;2.70;;;;;;;11.59;70.53;99968.88;214949;1276;141211;-66
2022/09/20 17:49:38;;;;;;;3.20;2.90;;;;;;;11.53;70.86;99983.50;215677;1276;142155;-66
2022/09/20 17:54:41;;;;;;;8.50;2.50;;;;;;;11.43;70.80;99985.83;215760;1276;140451;-66
2022/09/20 17:59:45;;;;;;;4.20;3.00;;;;;;;11.32;71.29;99991.08;215865;1276;140439;-67
2022/09/20 18:04:48;;;;;;;5.10;2.80;;;;;;;11.19;71.13;99993.40;215679;1276;140984;-65
2022/09/20 18:09:50;;;;;;;3.80;2.80;;;;;;;11.09;71.07;100000.09;213006;1276;139634;-67
2022/09/20 18:14:52;;;;;;;2.70;2.30;;;;;;;10.96;71.24;100006.48;213088;1276;140401;-68
2022/09/20 18:19:54;;;;;;;3.10;2.80;;;;;;;10.85;71.61;100018.10;213129;1276;139725;-67
2022/09/20 18:24:56;;;;;;;4.20;3.10;;;;;;;10.73;71.67;100022.71;214203;1276;140950;-68
2022/09/20 18:30:00;;;;;;;2.80;2.60;;;;;;;10.54;71.67;100028.09;212456;1276;140476;-65
2022/09/20 18:35:05;;;;;;;6.20;3.00;;;;;;;10.36;71.90;100034.93;214201;1276;163384;-68
2022/09/20 18:40:08;;;;;;;3.40;2.80;;;;;;;10.24;71.99;100046.69;213705;1276;141046;-67
2022/09/20 18:45:11;;;;;;;5.30;3.60;;;;;;;10.14;72.54;100055.76;212837;1276;140118;-66
2022/09/20 18:50:13;;;;;;;5.90;4.10;;;;;;;10.09;72.97;100054.08;213255;1276;141408;-67
2022/09/20 18:55:16;;;;;;;4.80;3.50;;;;;;;10.03;73.03;100057.96;214347;1276;142357;-67
2022/09/20 19:00:19;;;;;;;3.50;3.20;;;;;;;10.01;73.52;100055.81;214089;1276;140915;-67
2022/09/20 19:05:24;;;;;;;6.90;3.60;;;;;;;10.03;73.77;100056.33;212978;1276;141232;-66
2022/09/20 19:10:28;;;;;;;5.40;3.90;;;;;;;10.05;74.09;100055.48;213929;1276;140125;-67
2022/09/20 19:15:42;;;;;;;6.50;4.60;;;;;;;10.03;74.23;100058.83;212989;1276;141041;-66
2022/09/20 19:20:57;;;;;;;8.20;4.20;;;;;;;9.99;74.36;100066.90;212785;1276;141169;-66
2022/09/20 19:26:07;;;;;;;4.60;4.10;;;;;;;10.00;74.45;100071.27;215551;1276;141930;-67
2022/09/20 19:31:29;;;;;;;5.90;4.20;;;;;;;10.00;74.74;100073.65;213918;1276;141065;-67
2022/09/20 19:36:31;;;;;;;7.00;4.80;;;;;;;10.04;75.15;100077.28;215718;1276;140395;-68
2022/09/20 19:41:44;;;;;;;7.40;4.60;;;;;;;10.06;75.23;100078.02;215737;1276;139781;-68
2022/09/20 19:46:53;;;;;;;8.60;6.10;;;;;;;10.11;75.39;100077.35;215445;1276;141422;-68
2022/09/20 19:52:03;;;;;;;14.80;6.40;;;;;;;10.16;75.47;100080.38;215470;1277;140815;-69
2022/09/20 19:57:14;;;;;;;5.70;4.60;;;;;;;10.21;75.48;100085.55;215215;1276;141817;-68
2022/09/20 20:02:17;;;;;;;9.60;5.60;;;;;;;10.25;75.72;100087.48;213526;1274;140242;-65
2022/09/20 20:07:36;;;;;;;8.60;6.00;;;;;;;10.27;75.74;100094.45;213928;1278;141288;-67
2022/09/20 20:14:01;;;;;;;7.90;5.90;;;;;;;10.27;75.84;100095.65;214077;1276;142981;-68
2022/09/20 20:19:07;;;;;;;9.10;5.70;;;;;;;10.27;75.92;100094.58;214623;1276;142256;-67
2022/09/20 20:24:31;;;;;;;10.70;7.30;;;;;;;10.30;76.05;100095.98;214211;1276;141049;-65
2022/09/20 20:29:35;;;;;;;17.10;8.70;;;;;;;10.31;76.24;100104.39;213472;1276;142015;-67
2022/09/20 20:34:38;;;;;;;17.00;9.40;;;;;;;10.32;76.49;100108.09;212684;1274;140974;-66
2022/09/20 20:39:42;;;;;;;15.80;9.40;;;;;;;10.29;76.34;100113.61;213389;1276;164075;-67
2022/09/20 20:44:44;;;;;;;13.50;9.10;;;;;;;10.23;76.29;100117.05;213253;1276;141885;-66
2022/09/20 20:49:46;;;;;;;16.40;9.90;;;;;;;10.19;76.29;100122.09;212638;1276;141676;-66
2022/09/20 20:54:54;;;;;;;;;;;;;;;10.13;76.41;100119.66;213618;1276;140625;-66
2022/09/20 20:59:56;;;;;;;18.00;9.20;;;;;;;10.01;76.48;100124.53;213588;1276;127932;-69
2022/09/20 21:05:00;;;;;;;13.30;7.70;;;;;;;9.92;76.37;100128.71;213903;1276;140831;-66
2022/09/20 21:10:02;;;;;;;15.10;9.00;;;;;;;9.77;76.03;100130.36;214140;1276;141137;-68
2022/09/20 21:15:05;;;;;;;12.70;6.90;;;;;;;9.62;76.06;100133.39;213185;1276;141903;-68
2022/09/20 21:20:09;;;;;;;10.40;7.40;;;;;;;9.48;76.07;100135.63;213500;1276;141058;-67
2022/09/20 21:25:11;;;;;;;16.10;8.40;;;;;;;9.36;76.01;100129.85;214423;1276;139478;-66
2022/09/20 21:30:13;;;;;;;11.70;6.20;;;;;;;9.26;76.04;100138.30;214500;1276;140632;-67
2022/09/20 21:35:15;;;;;;;11.50;7.00;;;;;;;9.16;76.00;100136.70;215700;1276;140565;-68
2022/09/20 21:40:18;;;;;;;16.00;7.40;;;;;;;9.10;76.32;100137.33;215757;1276;141041;-69
2022/09/20 21:45:22;;;;;;;9.70;6.60;;;;;;;9.06;76.64;100138.98;215573;1276;140003;-68
2022/09/20 21:50:25;;;;;;;7.80;6.50;;;;;;;9.02;76.86;100140.52;215003;1276;140953;-68
2022/09/20 21:55:28;;;;;;;13.60;8.20;;;;;;;9.04;76.69;100139.57;215101;1276;698924;-68
2022/09/20 22:00:30;;;;;;;11.20;7.90;;;;;;;9.07;76.89;100138.70;215678;1276;141140;-68
2022/09/20 22:05:33;;;;;;;12.70;10.50;;;;;;;9.10;77.22;100140.52;212671;1276;140581;-68
2022/09/20 22:10:35;;;;;;;12.70;8.40;;;;;;;9.17;77.51;100152.05;215341;1276;141735;-68
2022/09/20 22:15:37;;;;;;;11.80;8.00;;;;;;;9.17;77.92;100154.95;214770;1276;139877;-67
2022/09/20 22:20:40;;;;;;;10.30;8.30;;;;;;;9.18;77.99;100152.31;214317;1276;141165;-66
2022/09/20 22:25:42;;;;;;;13.80;8.10;;;;;;;9.21;77.77;100160.96;214143;1276;141373;-67
2022/09/20 22:30:45;;;;;;;13.80;8.00;;;;;;;9.18;77.89;100162.96;213486;1276;141095;-67
2022/09/20 22:35:47;;;;;;;12.10;8.30;;;;;;;9.17;77.88;100164.23;212826;1276;142076;-64
2022/09/20 22:40:54;;;;;;;16.20;9.40;;;;;;;9.10;77.79;100168.34;212951;1276;141744;-66
2022/09/20 22:46:01;;;;;;;10.70;7.00;;;;;;;9.01;77.89;100169.25;213911;1276;140418;-66
2022/09/20 22:51:07;;;;;;;9.40;8.00;;;;;;;8.95;77.95;100166.05;212827;1276;142616;-66
2022/09/20 22:56:11;;;;;;;11.90;7.30;;;;;;;8.85;77.56;100163.25;213602;1276;140742;-66
2022/09/20 23:01:19;;;;;;;11.50;8.90;;;;;;;8.76;77.87;100159.09;214609;1276;142164;-68
2022/09/20 23:06:29;;;;;;;10.60;7.40;;;;;;;8.68;77.92;100158.02;214557;1275;140125;-68
2022/09/20 23:11:31;;;;;;;11.80;6.90;;;;;;;8.59;77.73;100159.37;212818;1276;140166;-66
2022/09/20 23:16:35;;;;;;;11.60;7.10;;;;;;;8.52;77.68;100153.44;213580;1276;140361;-67
2022/09/20 23:21:39;;;;;;;11.10;7.10;;;;;;;8.47;77.84;100158.20;215018;1276;141269;-66
2022/09/20 23:26:42;;;;;;;12.50;7.60;;;;;;;8.44;77.93;100165.16;213823;1276;140300;-67
2022/09/20 23:31:46;;;;;;;10.90;7.60;;;;;;;8.42;78.03;100168.31;215692;1276;141047;-69
2022/09/20 23:36:49;;;;;;;11.20;6.80;;;;;;;8.35;77.89;100167.83;214194;1276;141118;-68
2022/09/20 23:41:51;;;;;;;13.50;7.10;;;;;;;8.28;78.09;100166.45;215566;1276;142727;-68
2022/09/20 23:46:54;;;;;;;9.80;7.20;;;;;;;8.25;78.07;100170.38;215657;1276;140610;-68
2022/09/20 23:51:56;;;;;;;10.50;6.50;;;;;;;8.23;78.42;100173.70;215802;1276;141168;-68
2022/09/20 23:56:59;;;;;;;7.70;6.70;;;;;;;8.18;78.07;100173.67;215663;1276;141304;-68
